sensor_id;sensor_type;location;lat;lon;timestamp;pressure;altitude;pressure_sealevel;temperature;humidity
43155;BME280;34212;51.018;13.586;2024-01-15T00:03:43;95944.75;;;2.19;87.95
43155;BME280;34212;51.018;13.586;2024-01-15T00:08:48;95937.19;;;2.16;88.40
43155;BME280;34212;51.018;13.586;2024-01-15T00:13:49;95947.72;;;2.16;88.86
43155;BME280;34212;51.018;13.586;2024-01-15T00:18:51;95942.13;;;2.19;88.95
43155;BME280;34212;51.018;13.586;2024-01-15T00:23:52;95950.81;;;2.20;88.59
43155;BME280;34212;51.018;13.586;2024-01-15T00:28:54;95943.63;;;2.14;88.85
43155;BME280;34212;51.018;13.586;2024-01-15T00:33:56;95938.91;;;2.09;88.88
43155;BME280;34212;51.018;13.586;2024-01-15T00:38:59;95925.91;;;2.07;88.95
43155;BME280;34212;51.018;13.586;2024-01-15T00:44:00;95931.50;;;2.04;89.39
43155;BME280;34212;51.018;13.586;2024-01-15T00:49:02;95925.91;;;2.07;88.96
43155;BME280;34212;51.018;13.586;2024-01-15T00:54:04;95927.88;;;2.05;88.85
43155;BME280;34212;51.018;13.586;2024-01-15T00:59:06;95929.53;;;2.06;88.58
43155;BME280;34212;51.018;13.586;2024-01-15T01:04:09;95915.03;;;2.11;89.02
43155;BME280;34212;51.018;13.586;2024-01-15T01:09:11;95914.88;;;2.12;89.13
43155;BME280;34212;51.018;13.586;2024-01-15T01:14:13;95915.22;;;2.09;89.23
43155;BME280;34212;51.018;13.586;2024-01-15T01:19:14;95908.16;;;2.10;88.70
43155;BME280;34212;51.018;13.586;2024-01-15T01:24:16;95901.22;;;2.08;88.76
43155;BME280;34212;51.018;13.586;2024-01-15T01:29:18;95900.41;;;2.08;89.00
43155;BME280;34212;51.018;13.586;2024-01-15T01:34:19;95896.16;;;2.07;88.76
43155;BME280;34212;51.018;13.586;2024-01-15T01:39:21;95890.91;;;2.07;89.06
43155;BME280;34212;51.018;13.586;2024-01-15T01:44:22;95871.50;;;2.08;88.61
43155;BME280;34212;51.018;13.586;2024-01-15T01:49:24;95864.59;;;2.07;89.01
43155;BME280;34212;51.018;13.586;2024-01-15T01:54:29;95872.50;;;2.07;88.18
43155;BME280;34212;51.018;13.586;2024-01-15T01:59:34;95877.63;;;2.00;88.55
43155;BME280;34212;51.018;13.586;2024-01-15T02:04:35;95878.59;;;1.99;88.73
43155;BME280;34212;51.018;13.586;2024-01-15T02:09:38;95852.97;;;2.01;89.12
43155;BME280;34212;51.018;13.586;2024-01-15T02:14:39;95868.28;;;1.98;88.67
43155;BME280;34212;51.018;13.586;2024-01-15T02:19:41;95872.88;;;1.96;88.79
43155;BME280;34212;51.018;13.586;2024-01-15T02:24:43;95880.44;;;1.99;88.72
43155;BME280;34212;51.018;13.586;2024-01-15T02:29:44;95868.28;;;1.98;88.66
43155;BME280;34212;51.018;13.586;2024-01-15T02:34:46;95847.78;;;1.93;88.69
43155;BME280;34212;51.018;13.586;2024-01-15T02:39:48;95850.41;;;1.93;88.46
43155;BME280;34212;51.018;13.586;2024-01-15T02:44:49;95840.75;;;1.85;87.96
43155;BME280;34212;51.018;13.586;2024-01-15T02:49:51;95838.13;;;1.85;88.07
43155;BME280;34212;51.018;13.586;2024-01-15T02:54:53;95835.19;;;1.80;88.65
43155;BME280;34212;51.018;13.586;2024-01-15T02:59:54;95841.31;;;1.73;88.29
43155;BME280;34212;51.018;13.586;2024-01-15T03:04:56;95841.00;;;1.68;88.75
43155;BME280;34212;51.018;13.586;2024-01-15T03:09:57;95832.97;;;1.69;88.32
43155;BME280;34212;51.018;13.586;2024-01-15T03:14:59;95827.53;;;1.71;88.66
43155;BME280;34212;51.018;13.586;2024-01-15T03:20:01;95834.13;;;1.67;88.76
43155;BME280;34212;51.018;13.586;2024-01-15T03:25:04;95828.06;;;1.66;88.52
43155;BME280;34212;51.018;13.586;2024-01-15T03:30:06;95821.00;;;1.67;88.45
43155;BME280;34212;51.018;13.586;2024-01-15T03:35:08;95839.84;;;1.70;88.40
43155;BME280;34212;51.018;13.586;2024-01-15T03:40:10;95832.19;;;1.60;88.18
43155;BME280;34212;51.018;13.586;2024-01-15T03:45:12;95845.50;;;1.59;88.30
43155;BME280;34212;51.018;13.586;2024-01-15T03:50:14;95837.66;;;1.51;88.25
43155;BME280;34212;51.018;13.586;2024-01-15T03:55:15;95842.59;;;1.46;88.19
43155;BME280;34212;51.018;13.586;2024-01-15T04:00:17;95847.38;;;1.42;88.25
43155;BME280;34212;51.018;13.586;2024-01-15T04:05:19;95846.25;;;1.36;88.35
43155;BME280;34212;51.018;13.586;2024-01-15T04:10:20;95849.22;;;1.33;88.41
43155;BME280;34212;51.018;13.586;2024-01-15T04:15:22;95826.25;;;1.27;87.99
43155;BME280;34212;51.018;13.586;2024-01-15T04:20:23;95820.53;;;1.24;88.60
43155;BME280;34212;51.018;13.586;2024-01-15T04:25:26;95822.53;;;1.22;89.09
43155;BME280;34212;51.018;13.586;2024-01-15T04:30:27;95829.75;;;1.20;88.59
43155;BME280;34212;51.018;13.586;2024-01-15T04:35:33;95832.38;;;1.20;88.24
43155;BME280;34212;51.018;13.586;2024-01-15T04:40:35;95826.13;;;1.21;88.69
43155;BME280;34212;51.018;13.586;2024-01-15T04:45:36;95827.13;;;1.20;89.20
43155;BME280;34212;51.018;13.586;2024-01-15T04:50:38;95831.06;;;1.15;88.57
43155;BME280;34212;51.018;13.586;2024-01-15T04:55:40;95844.72;;;1.03;87.50
43155;BME280;34212;51.018;13.586;2024-01-15T05:00:41;95834.25;;;0.95;88.24
43155;BME280;34212;51.018;13.586;2024-01-15T05:05:43;95842.94;;;1.03;89.20
43155;BME280;34212;51.018;13.586;2024-01-15T05:10:44;95846.66;;;1.09;88.99
43155;BME280;34212;51.018;13.586;2024-01-15T05:15:46;95867.00;;;1.15;89.27
43155;BME280;34212;51.018;13.586;2024-01-15T05:20:48;95848.94;;;1.12;88.52
43155;BME280;34212;51.018;13.586;2024-01-15T05:25:50;95854.03;;;1.13;89.05
43155;BME280;34212;51.018;13.586;2024-01-15T05:30:51;95853.56;;;1.10;88.92
43155;BME280;34212;51.018;13.586;2024-01-15T05:35:54;95843.06;;;1.10;88.93
43155;BME280;34212;51.018;13.586;2024-01-15T05:40:56;95853.56;;;1.10;88.93
43155;BME280;34212;51.018;13.586;2024-01-15T05:45:57;95853.59;;;1.02;88.10
43155;BME280;34212;51.018;13.586;2024-01-15T05:50:59;95855.41;;;1.01;88.66
43155;BME280;34212;51.018;13.586;2024-01-15T05:56:01;95855.88;;;1.05;88.36
43155;BME280;34212;51.018;13.586;2024-01-15T06:01:03;95858.50;;;1.05;88.52
43155;BME280;34212;51.018;13.586;2024-01-15T06:06:04;95848.34;;;1.02;88.59
43155;BME280;34212;51.018;13.586;2024-01-15T06:11:06;95849.00;;;1.04;88.37
43155;BME280;34212;51.018;13.586;2024-01-15T06:16:14;95852.59;;;1.03;87.73
43155;BME280;34212;51.018;13.586;2024-01-15T06:21:16;95824.03;;;1.00;88.09
43155;BME280;34212;51.018;13.586;2024-01-15T06:26:18;95831.44;;;1.04;88.41
43155;BME280;34212;51.018;13.586;2024-01-15T06:31:19;95827.66;;;1.07;88.54
43155;BME280;34212;51.018;13.586;2024-01-15T06:36:21;95802.03;;;1.09;88.11
43155;BME280;34212;51.018;13.586;2024-01-15T06:41:23;95821.59;;;1.06;88.19
43155;BME280;34212;51.018;13.586;2024-01-15T06:46:26;95813.88;;;1.05;88.48
43155;BME280;34212;51.018;13.586;2024-01-15T06:51:29;95821.09;;;1.03;87.95
43155;BME280;34212;51.018;13.586;2024-01-15T06:56:31;95825.03;;;0.99;87.50
43155;BME280;34212;51.018;13.586;2024-01-15T07:01:33;95825.09;;;0.90;87.57
43155;BME280;34212;51.018;13.586;2024-01-15T07:06:34;95823.13;;;0.84;86.96
43155;BME280;34212;51.018;13.586;2024-01-15T07:11:37;95810.34;;;0.73;87.09
43155;BME280;34212;51.018;13.586;2024-01-15T07:16:38;95823.00;;;0.69;87.03
43155;BME280;34212;51.018;13.586;2024-01-15T07:21:41;95838.22;;;0.74;88.17
43155;BME280;34212;51.018;13.586;2024-01-15T07:26:44;95837.53;;;0.88;88.00
43155;BME280;34212;51.018;13.586;2024-01-15T07:31:50;95850.47;;;0.98;87.64
43155;BME280;34212;51.018;13.586;2024-01-15T07:36:52;95840.47;;;1.02;86.96
43155;BME280;34212;51.018;13.586;2024-01-15T07:41:54;95852.44;;;0.96;86.74
43155;BME280;34212;51.018;13.586;2024-01-15T07:46:55;95857.88;;;0.95;86.91
43155;BME280;34212;51.018;13.586;2024-01-15T07:51:57;95846.41;;;0.87;86.57
43155;BME280;34212;51.018;13.586;2024-01-15T07:57:00;95849.03;;;0.87;87.07
43155;BME280;34212;51.018;13.586;2024-01-15T08:02:03;95841.16;;;0.87;86.29
43155;BME280;34212;51.018;13.586;2024-01-15T08:07:04;95845.13;;;0.75;86.53
43155;BME280;34212;51.018;13.586;2024-01-15T08:12:08;95847.09;;;0.73;86.76
43155;BME280;34212;51.018;13.586;2024-01-15T08:17:11;95838.56;;;0.71;86.08
43155;BME280;34212;51.018;13.586;2024-01-15T08:22:13;95840.88;;;0.66;86.24
43155;BME280;34212;51.018;13.586;2024-01-15T08:27:14;95853.66;;;0.61;86.13
43155;BME280;34212;51.018;13.586;2024-01-15T08:32:16;95861.72;;;0.59;86.44
43155;BME280;34212;51.018;13.586;2024-01-15T08:37:18;95853.66;;;0.61;86.21
43155;BME280;34212;51.018;13.586;2024-01-15T08:42:20;95854.66;;;0.60;86.36
43155;BME280;34212;51.018;13.586;2024-01-15T08:47:22;95857.91;;;0.62;86.41
43155;BME280;34212;51.018;13.586;2024-01-15T08:52:23;95858.25;;;0.67;86.31
43155;BME280;34212;51.018;13.586;2024-01-15T08:57:25;95856.72;;;0.81;86.10
43155;BME280;34212;51.018;13.586;2024-01-15T09:02:26;95860.69;;;0.85;86.13
43155;BME280;34212;51.018;13.586;2024-01-15T09:07:28;95865.59;;;0.88;85.89
43155;BME280;34212;51.018;13.586;2024-01-15T09:12:29;95866.72;;;1.02;86.35
43155;BME280;34212;51.018;13.586;2024-01-15T09:17:34;95882.41;;;1.18;85.40
43155;BME280;34212;51.018;13.586;2024-01-15T09:22:38;95887.31;;;1.29;85.65
43155;BME280;34212;51.018;13.586;2024-01-15T09:27:40;95856.25;;;1.41;85.07
43155;BME280;34212;51.018;13.586;2024-01-15T09:32:42;95865.28;;;1.47;85.00
43155;BME280;34212;51.018;13.586;2024-01-15T09:37:43;95876.50;;;1.64;85.02
43155;BME280;34212;51.018;13.586;2024-01-15T09:42:49;95879.59;;;1.75;84.50
43155;BME280;34212;51.018;13.586;2024-01-15T09:47:51;95879.59;;;1.75;84.86
43155;BME280;34212;51.018;13.586;2024-01-15T09:52:54;95870.34;;;1.79;84.32
43155;BME280;34212;51.018;13.586;2024-01-15T09:57:56;95874.09;;;1.85;84.01
43155;BME280;34212;51.018;13.586;2024-01-15T10:02:59;95888.41;;;1.82;83.71
43155;BME280;34212;51.018;13.586;2024-01-15T10:08:02;95873.63;;;1.81;83.92
43155;BME280;34212;51.018;13.586;2024-01-15T10:13:05;95859.97;;;1.86;83.67
43155;BME280;34212;51.018;13.586;2024-01-15T10:18:08;95872.41;;;1.92;84.06
43155;BME280;34212;51.018;13.586;2024-01-15T10:23:11;95872.50;;;2.07;84.64
43155;BME280;34212;51.018;13.586;2024-01-15T10:28:13;95845.28;;;2.23;83.97
43155;BME280;34212;51.018;13.586;2024-01-15T10:33:14;95841.94;;;2.06;83.42
43155;BME280;34212;51.018;13.586;2024-01-15T10:38:17;95841.88;;;2.14;84.52
43155;BME280;34212;51.018;13.586;2024-01-15T10:43:21;95844.34;;;2.16;83.58
43155;BME280;34212;51.018;13.586;2024-01-15T10:48:26;95850.06;;;2.19;84.19
43155;BME280;34212;51.018;13.586;2024-01-15T10:53:30;95849.06;;;2.20;83.30
43155;BME280;34212;51.018;13.586;2024-01-15T10:58:34;95834.28;;;2.19;84.11
43155;BME280;34212;51.018;13.586;2024-01-15T11:03:36;95848.13;;;2.13;84.34
43155;BME280;34212;51.018;13.586;2024-01-15T11:08:38;95832.25;;;2.06;84.66
43155;BME280;34212;51.018;13.586;2024-01-15T11:13:45;95838.97;;;2.09;84.89
43155;BME280;34212;51.018;13.586;2024-01-15T11:24:01;95844.84;;;2.11;84.28
43155;BME280;34212;51.018;13.586;2024-01-15T11:29:03;95839.59;;;2.11;83.89
43155;BME280;34212;51.018;13.586;2024-01-15T11:34:07;95843.88;;;2.12;83.94
43155;BME280;34212;51.018;13.586;2024-01-15T11:44:30;95829.59;;;2.29;84.85
43155;BME280;34212;51.018;13.586;2024-01-15T11:50:03;95824.53;;;2.43;85.10
43155;BME280;34212;51.018;13.586;2024-01-15T11:55:22;95818.56;;;2.49;84.90
43155;BME280;34212;51.018;13.586;2024-01-15T12:00:24;95822.06;;;2.49;84.95
43155;BME280;34212;51.018;13.586;2024-01-15T12:05:25;95822.88;;;2.50;84.64
43155;BME280;34212;51.018;13.586;2024-01-15T12:10:27;95820.59;;;2.47;85.18
43155;BME280;34212;51.018;13.586;2024-01-15T12:15:29;95820.00;;;2.37;84.31
43155;BME280;34212;51.018;13.586;2024-01-15T12:20:31;95821.09;;;2.27;84.22
43155;BME280;34212;51.018;13.586;2024-01-15T12:25:34;95818.50;;;2.19;84.59
43155;BME280;34212;51.018;13.586;2024-01-15T12:30:35;95831.97;;;2.24;85.23
43155;BME280;34212;51.018;13.586;2024-01-15T12:35:38;95829.59;;;2.29;85.99
43155;BME280;34212;51.018;13.586;2024-01-15T12:40:40;95812.47;;;2.34;85.58
43155;BME280;34212;51.018;13.586;2024-01-15T12:45:41;95818.63;;;2.26;85.98
43155;BME280;34212;51.018;13.586;2024-01-15T12:50:44;95812.78;;;2.16;86.51
43155;BME280;34212;51.018;13.586;2024-01-15T12:55:47;95820.84;;;2.14;87.20
43155;BME280;34212;51.018;13.586;2024-01-15T13:00:48;95808.69;;;2.13;86.51
43155;BME280;34212;51.018;13.586;2024-01-15T13:05:50;95807.41;;;2.09;86.80
43155;BME280;34212;51.018;13.586;2024-01-15T13:10:54;95808.75;;;2.05;87.27
43155;BME280;34212;51.018;13.586;2024-01-15T13:15:58;95813.38;;;2.03;87.67
43155;BME280;34212;51.018;13.586;2024-01-15T13:20:59;95808.75;;;2.05;87.59
43155;BME280;34212;51.018;13.586;2024-01-15T13:26:01;95821.38;;;2.10;87.37
43155;BME280;34212;51.018;13.586;2024-01-15T13:31:03;95818.56;;;2.11;87.19
43155;BME280;34212;51.018;13.586;2024-01-15T13:36:06;95835.34;;;2.10;87.31
43155;BME280;34212;51.018;13.586;2024-01-15T13:41:11;95842.09;;;2.04;87.70
43155;BME280;34212;51.018;13.586;2024-01-15T13:46:13;95841.88;;;1.91;87.85
43155;BME280;34212;51.018;13.586;2024-01-15T13:51:14;95842.09;;;1.81;88.16
43155;BME280;34212;51.018;13.586;2024-01-15T13:56:16;95838.16;;;1.77;88.24
43155;BME280;34212;51.018;13.586;2024-01-15T14:01:20;95849.19;;;1.73;88.47
43155;BME280;34212;51.018;13.586;2024-01-15T14:06:22;95850.22;;;1.72;88.66
43155;BME280;34212;51.018;13.586;2024-01-15T14:11:25;95853.00;;;1.70;88.90
43155;BME280;34212;51.018;13.586;2024-01-15T14:16:27;95852.69;;;1.65;88.56
43155;BME280;34212;51.018;13.586;2024-01-15T14:21:28;95859.94;;;1.63;88.81
43155;BME280;34212;51.018;13.586;2024-01-15T14:26:30;95859.81;;;1.56;89.00
43155;BME280;34212;51.018;13.586;2024-01-15T14:31:31;95871.81;;;1.51;89.13
43155;BME280;34212;51.018;13.586;2024-01-15T14:36:35;95870.19;;;1.42;89.61
43155;BME280;34212;51.018;13.586;2024-01-15T14:41:36;95879.41;;;1.37;90.11
43155;BME280;34212;51.018;13.586;2024-01-15T14:46:38;95898.78;;;1.36;89.84
43155;BME280;34212;51.018;13.586;2024-01-15T14:51:40;95899.78;;;1.35;89.66
43155;BME280;34212;51.018;13.586;2024-01-15T14:56:41;95892.22;;;1.32;90.17
43155;BME280;34212;51.018;13.586;2024-01-15T15:01:44;95892.22;;;1.41;90.88
43155;BME280;34212;51.018;13.586;2024-01-15T15:06:45;95890.22;;;1.43;90.42
43155;BME280;34212;51.018;13.586;2024-01-15T15:11:47;95881.38;;;1.44;89.76
43155;BME280;34212;51.018;13.586;2024-01-15T15:16:49;95880.03;;;1.39;89.91
43155;BME280;34212;51.018;13.586;2024-01-15T15:21:50;95885.31;;;1.39;89.54
43155;BME280;34212;51.018;13.586;2024-01-15T15:26:52;95894.53;;;1.35;89.96
43155;BME280;34212;51.018;13.586;2024-01-15T15:31:56;95904.50;;;1.40;89.89
43155;BME280;34212;51.018;13.586;2024-01-15T15:36:57;95912.88;;;1.44;90.00
43155;BME280;34212;51.018;13.586;2024-01-15T15:41:59;95906.31;;;1.39;89.63
43155;BME280;34212;51.018;13.586;2024-01-15T15:47:01;95922.25;;;1.38;89.93
43155;BME280;34212;51.018;13.586;2024-01-15T15:52:03;95927.19;;;1.41;89.96
43155;BME280;34212;51.018;13.586;2024-01-15T15:57:04;95928.66;;;1.44;89.83
43155;BME280;34212;51.018;13.586;2024-01-15T16:02:06;95924.88;;;1.38;89.16
43155;BME280;34212;51.018;13.586;2024-01-15T16:07:07;95939.50;;;1.32;89.61
43155;BME280;34212;51.018;13.586;2024-01-15T16:12:11;95946.72;;;1.30;89.50
43155;BME280;34212;51.018;13.586;2024-01-15T16:17:13;95942.78;;;1.34;89.87
43155;BME280;34212;51.018;13.586;2024-01-15T16:22:34;95949.69;;;1.27;89.35
43155;BME280;34212;51.018;13.586;2024-01-15T16:27:56;95957.88;;;1.32;89.62
43155;BME280;34212;51.018;13.586;2024-01-15T16:32:58;95956.59;;;1.28;89.32
43155;BME280;34212;51.018;13.586;2024-01-15T16:37:59;95962.47;;;1.30;89.53
43155;BME280;34212;51.018;13.586;2024-01-15T16:43:02;95962.47;;;1.30;89.80
43155;BME280;34212;51.018;13.586;2024-01-15T16:48:05;95961.50;;;1.31;89.79
43155;BME280;34212;51.018;13.586;2024-01-15T16:53:06;95983.34;;;1.32;90.00
43155;BME280;34212;51.018;13.586;2024-01-15T16:58:08;95976.94;;;1.34;90.05
43155;BME280;34212;51.018;13.586;2024-01-15T17:03:10;95992.38;;;1.37;90.03
43155;BME280;34212;51.018;13.586;2024-01-15T17:08:11;95991.69;;;1.44;89.80
43155;BME280;34212;51.018;13.586;2024-01-15T17:13:13;95998.25;;;1.48;89.56
43155;BME280;34212;51.018;13.586;2024-01-15T17:18:14;95993.81;;;1.48;89.32
43155;BME280;34212;51.018;13.586;2024-01-15T17:23:17;95992.81;;;1.49;89.08
43155;BME280;34212;51.018;13.586;2024-01-15T17:28:19;96001.53;;;1.50;88.96
43155;BME280;34212;51.018;13.586;2024-01-15T17:33:24;96005.47;;;1.46;88.63
43155;BME280;34212;51.018;13.586;2024-01-15T17:38:27;96009.41;;;1.42;88.69
43155;BME280;34212;51.018;13.586;2024-01-15T17:43:29;96019.09;;;1.41;89.44
43155;BME280;34212;51.018;13.586;2024-01-15T17:48:30;96021.41;;;1.44;89.40
43155;BME280;34212;51.018;13.586;2024-01-15T17:53:36;96021.22;;;1.46;89.64
43155;BME280;34212;51.018;13.586;2024-01-15T17:58:38;96019.59;;;1.45;89.78
43155;BME280;34212;51.018;13.586;2024-01-15T18:03:42;96030.59;;;1.48;89.67
43155;BME280;34212;51.018;13.586;2024-01-15T18:08:43;96030.91;;;1.45;89.39
43155;BME280;34212;51.018;13.586;2024-01-15T18:13:45;96027.63;;;1.43;89.54
43155;BME280;34212;51.018;13.586;2024-01-15T18:18:47;96042.25;;;1.37;89.19
43155;BME280;34212;51.018;13.586;2024-01-15T18:23:49;96053.44;;;1.31;89.78
43155;BME280;34212;51.018;13.586;2024-01-15T18:28:50;96042.13;;;1.31;89.80
43155;BME280;34212;51.018;13.586;2024-01-15T18:33:52;96039.63;;;1.37;90.54
43155;BME280;34212;51.018;13.586;2024-01-15T18:38:53;96049.16;;;1.47;90.07
43155;BME280;34212;51.018;13.586;2024-01-15T18:43:55;96042.09;;;1.47;89.76
43155;BME280;34212;51.018;13.586;2024-01-15T18:48:58;96047.34;;;1.47;89.59
43155;BME280;34212;51.018;13.586;2024-01-15T18:54:00;96060.47;;;1.47;89.53
43155;BME280;34212;51.018;13.586;2024-01-15T18:59:01;96049.16;;;1.47;89.43
43155;BME280;34212;51.018;13.586;2024-01-15T19:04:03;96061.78;;;1.43;89.57
43155;BME280;34212;51.018;13.586;2024-01-15T19:09:05;96060.00;;;1.44;90.44
43155;BME280;34212;51.018;13.586;2024-01-15T19:14:07;96063.75;;;1.49;90.18
43155;BME280;34212;51.018;13.586;2024-01-15T19:19:08;96061.78;;;1.51;89.78
43155;BME280;34212;51.018;13.586;2024-01-15T19:24:10;96070.66;;;1.50;89.59
43155;BME280;34212;51.018;13.586;2024-01-15T19:29:11;96069.19;;;1.48;89.70
43155;BME280;34212;51.018;13.586;2024-01-15T19:34:13;96072.13;;;1.45;89.76
43155;BME280;34212;51.018;13.586;2024-01-15T19:39:15;96079.53;;;1.41;89.87
43155;BME280;34212;51.018;13.586;2024-01-15T19:44:16;96068.53;;;1.37;90.17
43155;BME280;34212;51.018;13.586;2024-01-15T19:49:18;96077.72;;;1.42;90.20
43155;BME280;34212;51.018;13.586;2024-01-15T19:54:19;96080.00;;;1.45;90.02
43155;BME280;34212;51.018;13.586;2024-01-15T19:59:21;96096.13;;;1.50;89.93
43155;BME280;34212;51.018;13.586;2024-01-15T20:04:22;96101.03;;;1.53;89.79
43155;BME280;34212;51.018;13.586;2024-01-15T20:09:24;96109.88;;;1.52;89.16
43155;BME280;34212;51.018;13.586;2024-01-15T20:14:25;96117.94;;;1.50;89.51
43155;BME280;34212;51.018;13.586;2024-01-15T20:19:28;96133.84;;;1.49;89.28
43155;BME280;34212;51.018;13.586;2024-01-15T20:24:30;96136.66;;;1.47;89.96
43155;BME280;34212;51.018;13.586;2024-01-15T20:29:31;96135.50;;;1.42;89.88
43155;BME280;34212;51.018;13.586;2024-01-15T20:34:33;96144.19;;;1.42;90.22
43155;BME280;34212;51.018;13.586;2024-01-15T20:39:35;96155.19;;;1.46;89.61
43155;BME280;34212;51.018;13.586;2024-01-15T20:44:36;96161.13;;;1.48;89.77
43155;BME280;34212;51.018;13.586;2024-01-15T20:49:38;96162.75;;;1.49;89.80
43155;BME280;34212;51.018;13.586;2024-01-15T20:54:39;96173.94;;;1.51;90.02
43155;BME280;34212;51.018;13.586;2024-01-15T20:59:41;96170.97;;;1.54;90.04
43155;BME280;34212;51.018;13.586;2024-01-15T21:04:43;96177.22;;;1.53;89.98
43155;BME280;34212;51.018;13.586;2024-01-15T21:09:44;96187.53;;;1.46;89.26
43155;BME280;34212;51.018;13.586;2024-01-15T21:14:46;96195.94;;;1.42;89.99
43155;BME280;34212;51.018;13.586;2024-01-15T21:19:47;96218.56;;;1.34;89.65
43155;BME280;34212;51.018;13.586;2024-01-15T21:24:49;96220.34;;;1.26;90.46
43155;BME280;34212;51.018;13.586;2024-01-15T21:29:51;96224.78;;;1.25;90.77
43155;BME280;34212;51.018;13.586;2024-01-15T21:34:52;96245.47;;;1.28;90.63
43155;BME280;34212;51.018;13.586;2024-01-15T21:39:54;96239.91;;;1.31;91.37
43155;BME280;34212;51.018;13.586;2024-01-15T21:44:55;96253.38;;;1.36;91.17
43155;BME280;34212;51.018;13.586;2024-01-15T21:49:57;96257.97;;;1.43;90.83
43155;BME280;34212;51.018;13.586;2024-01-15T21:54:58;96257.66;;;1.46;90.87
43155;BME280;34212;51.018;13.586;2024-01-15T22:00:00;96264.25;;;1.50;90.78
43155;BME280;34212;51.018;13.586;2024-01-15T22:05:10;96272.47;;;1.55;90.54
43155;BME280;34212;51.018;13.586;2024-01-15T22:10:12;96284.63;;;1.56;89.91
43155;BME280;34212;51.018;13.586;2024-01-15T22:15:14;96277.38;;;1.58;90.23
43155;BME280;34212;51.018;13.586;2024-01-15T22:20:15;96282.00;;;1.64;90.35
43155;BME280;34212;51.018;13.586;2024-01-15T22:25:17;96289.41;;;1.69;90.59
43155;BME280;34212;51.018;13.586;2024-01-15T22:30:18;96293.19;;;1.74;90.41
43155;BME280;34212;51.018;13.586;2024-01-15T22:35:20;96290.22;;;1.77;90.58
43155;BME280;34212;51.018;13.586;2024-01-15T22:40:22;96303.06;;;1.80;89.96
43155;BME280;34212;51.018;13.586;2024-01-15T22:45:24;96299.47;;;1.81;90.40
43155;BME280;34212;51.018;13.586;2024-01-15T22:50:25;96306.34;;;1.82;90.25
43155;BME280;34212;51.018;13.586;2024-01-15T22:55:27;96321.13;;;1.83;89.93
43155;BME280;34212;51.018;13.586;2024-01-15T23:00:28;96310.63;;;1.83;89.81
43155;BME280;34212;51.018;13.586;2024-01-15T23:05:30;96322.13;;;1.82;90.05
43155;BME280;34212;51.018;13.586;2024-01-15T23:10:32;96327.69;;;1.79;90.05
43155;BME280;34212;51.018;13.586;2024-01-15T23:15:34;96339.84;;;1.80;90.14
43155;BME280;34212;51.018;13.586;2024-01-15T23:20:35;96346.91;;;1.80;89.79
43155;BME280;34212;51.018;13.586;2024-01-15T23:25:37;96357.28;;;1.81;89.97
43155;BME280;34212;51.018;13.586;2024-01-15T23:30:39;96373.56;;;1.85;89.75
43155;BME280;34212;51.018;13.586;2024-01-15T23:35:40;96381.28;;;1.87;89.73
43155;BME280;34212;51.018;13.586;2024-01-15T23:40:42;96379.31;;;1.89;89.52
43155;BME280;34212;51.018;13.586;2024-01-15T23:45:44;96377.34;;;1.91;89.73
43155;BME280;34212;51.018;13.586;2024-01-15T23:50:51;96376.38;;;1.92;89.59
43155;BME280;34212;51.018;13.586;2024-01-15T23:55:53;96378.00;;;1.93;89.13
